Dewitt, Kentucky
Current Conditions -  °F | °C
As of 6:15 PM on Monday 22 Dec 2014 (Local Time) from K1A6 Reporting Station
Overcast Overcast  
Wind Chill: 51°   Ceiling: 5500
Heat Index: 51°   Visibility: 10mi
Dew Point: 47°   Wind: 3mph
Humidity: 87%   Direction: 260°W
Pressure: 29.84"   Gusts: NA
Location:  36.85°N, 83.73°W
Report Text: K1A6 222315Z AUTO 26003KT 10SM BKN055 BKN065 OVC085 11/08 A2984 RMK AO2 T01050084
Loading
Personal Weather Stations






























Interactive Weather Map New forecast layout! Learn more

10-Day Weather Forecast

Advertisements
Track Severe Weather on mobile